sensor_id;sensor_type;location;lat;lon;timestamp;P1;durP1;ratioP1;P2;durP2;ratioP2
8978;SDS011;4524;51.364;5.448;2023-01-23T00:00:54;30.93;;;19.97;;
8978;SDS011;4524;51.364;5.448;2023-01-23T00:03:23;32.50;;;20.33;;
8978;SDS011;4524;51.364;5.448;2023-01-23T00:05:55;33.47;;;22.90;;
8978;SDS011;4524;51.364;5.448;2023-01-23T00:08:24;35.37;;;20.30;;
8978;SDS011;4524;51.364;5.448;2023-01-23T00:10:52;28.50;;;19.57;;
8978;SDS011;4524;51.364;5.448;2023-01-23T00:13:21;33.13;;;20.07;;
8978;SDS011;4524;51.364;5.448;2023-01-23T00:15:49;30.13;;;20.07;;
8978;SDS011;4524;51.364;5.448;2023-01-23T00:18:18;33.23;;;20.33;;
8978;SDS011;4524;51.364;5.448;2023-01-23T00:20:46;30.53;;;20.70;;
8978;SDS011;4524;51.364;5.448;2023-01-23T00:23:14;32.63;;;20.37;;
8978;SDS011;4524;51.364;5.448;2023-01-23T00:25:42;29.47;;;20.43;;
8978;SDS011;4524;51.364;5.448;2023-01-23T00:28:10;33.40;;;20.37;;
8978;SDS011;4524;51.364;5.448;2023-01-23T00:30:38;32.93;;;20.87;;
8978;SDS011;4524;51.364;5.448;2023-01-23T00:33:06;38.33;;;21.47;;
8978;SDS011;4524;51.364;5.448;2023-01-23T00:35:36;30.10;;;18.77;;
8978;SDS011;4524;51.364;5.448;2023-01-23T00:38:04;34.00;;;21.20;;
8978;SDS011;4524;51.364;5.448;2023-01-23T00:40:32;27.93;;;19.40;;
8978;SDS011;4524;51.364;5.448;2023-01-23T00:43:01;31.77;;;20.23;;
8978;SDS011;4524;51.364;5.448;2023-01-23T00:45:29;28.40;;;18.60;;
8978;SDS011;4524;51.364;5.448;2023-01-23T00:47:56;30.57;;;19.77;;
8978;SDS011;4524;51.364;5.448;2023-01-23T00:50:25;33.93;;;20.37;;
8978;SDS011;4524;51.364;5.448;2023-01-23T00:52:54;32.77;;;19.17;;
8978;SDS011;4524;51.364;5.448;2023-01-23T00:55:22;35.00;;;20.23;;
8978;SDS011;4524;51.364;5.448;2023-01-23T00:57:50;34.20;;;20.23;;
8978;SDS011;4524;51.364;5.448;2023-01-23T01:00:18;31.13;;;20.67;;
8978;SDS011;4524;51.364;5.448;2023-01-23T01:02:47;34.47;;;19.53;;
8978;SDS011;4524;51.364;5.448;2023-01-23T01:05:15;37.10;;;22.53;;
8978;SDS011;4524;51.364;5.448;2023-01-23T01:07:45;35.63;;;20.50;;
8978;SDS011;4524;51.364;5.448;2023-01-23T01:10:15;32.43;;;20.40;;
8978;SDS011;4524;51.364;5.448;2023-01-23T01:12:44;31.00;;;19.10;;
8978;SDS011;4524;51.364;5.448;2023-01-23T01:15:13;35.30;;;21.57;;
8978;SDS011;4524;51.364;5.448;2023-01-23T01:17:41;33.13;;;20.07;;
8978;SDS011;4524;51.364;5.448;2023-01-23T01:20:09;34.53;;;20.87;;
8978;SDS011;4524;51.364;5.448;2023-01-23T01:22:38;36.33;;;20.57;;
8978;SDS011;4524;51.364;5.448;2023-01-23T01:25:06;31.30;;;19.67;;
8978;SDS011;4524;51.364;5.448;2023-01-23T01:27:36;33.37;;;19.03;;
8978;SDS011;4524;51.364;5.448;2023-01-23T01:30:05;30.70;;;19.77;;
8978;SDS011;4524;51.364;5.448;2023-01-23T01:32:35;41.67;;;20.90;;
8978;SDS011;4524;51.364;5.448;2023-01-23T01:35:03;35.17;;;21.17;;
8978;SDS011;4524;51.364;5.448;2023-01-23T01:37:32;33.17;;;20.60;;
8978;SDS011;4524;51.364;5.448;2023-01-23T01:40:01;33.70;;;21.33;;
8978;SDS011;4524;51.364;5.448;2023-01-23T01:42:29;36.00;;;21.67;;
8978;SDS011;4524;51.364;5.448;2023-01-23T01:44:59;36.37;;;20.37;;
8978;SDS011;4524;51.364;5.448;2023-01-23T01:47:28;36.20;;;21.47;;
8978;SDS011;4524;51.364;5.448;2023-01-23T01:49:57;34.27;;;20.17;;
8978;SDS011;4524;51.364;5.448;2023-01-23T01:52:28;32.87;;;21.13;;
8978;SDS011;4524;51.364;5.448;2023-01-23T01:54:57;33.67;;;19.50;;
8978;SDS011;4524;51.364;5.448;2023-01-23T01:57:29;32.43;;;19.80;;
8978;SDS011;4524;51.364;5.448;2023-01-23T02:00:02;29.90;;;19.30;;
8978;SDS011;4524;51.364;5.448;2023-01-23T02:02:41;36.50;;;21.07;;
8978;SDS011;4524;51.364;5.448;2023-01-23T02:05:14;37.87;;;21.03;;
8978;SDS011;4524;51.364;5.448;2023-01-23T02:07:47;30.67;;;19.10;;
8978;SDS011;4524;51.364;5.448;2023-01-23T02:10:20;35.27;;;20.70;;
8978;SDS011;4524;51.364;5.448;2023-01-23T02:12:49;37.77;;;21.77;;
8978;SDS011;4524;51.364;5.448;2023-01-23T02:15:20;32.50;;;20.30;;
8978;SDS011;4524;51.364;5.448;2023-01-23T02:17:49;35.63;;;21.03;;
8978;SDS011;4524;51.364;5.448;2023-01-23T02:20:20;33.30;;;19.70;;
8978;SDS011;4524;51.364;5.448;2023-01-23T02:22:51;33.27;;;20.93;;
8978;SDS011;4524;51.364;5.448;2023-01-23T02:25:27;30.40;;;19.63;;
8978;SDS011;4524;51.364;5.448;2023-01-23T02:28:03;33.17;;;18.80;;
8978;SDS011;4524;51.364;5.448;2023-01-23T02:30:35;26.03;;;18.37;;
8978;SDS011;4524;51.364;5.448;2023-01-23T02:33:06;33.37;;;20.20;;
8978;SDS011;4524;51.364;5.448;2023-01-23T02:35:35;30.57;;;19.90;;
8978;SDS011;4524;51.364;5.448;2023-01-23T02:38:08;35.37;;;19.53;;
8978;SDS011;4524;51.364;5.448;2023-01-23T02:40:37;33.87;;;20.23;;
8978;SDS011;4524;51.364;5.448;2023-01-23T02:43:11;31.77;;;19.63;;
8978;SDS011;4524;51.364;5.448;2023-01-23T02:45:49;33.27;;;20.70;;
8978;SDS011;4524;51.364;5.448;2023-01-23T02:48:18;37.40;;;21.47;;
8978;SDS011;4524;51.364;5.448;2023-01-23T02:50:46;39.03;;;21.10;;
8978;SDS011;4524;51.364;5.448;2023-01-23T02:53:14;33.13;;;20.80;;
8978;SDS011;4524;51.364;5.448;2023-01-23T02:55:43;34.47;;;20.87;;
8978;SDS011;4524;51.364;5.448;2023-01-23T02:58:13;30.93;;;19.70;;
8978;SDS011;4524;51.364;5.448;2023-01-23T03:00:59;36.70;;;21.83;;
8978;SDS011;4524;51.364;5.448;2023-01-23T03:03:27;28.77;;;18.67;;
8978;SDS011;4524;51.364;5.448;2023-01-23T03:05:55;30.63;;;19.70;;
8978;SDS011;4524;51.364;5.448;2023-01-23T03:08:24;35.27;;;19.73;;
8978;SDS011;4524;51.364;5.448;2023-01-23T03:10:58;34.13;;;20.40;;
8978;SDS011;4524;51.364;5.448;2023-01-23T03:13:28;29.83;;;19.63;;
8978;SDS011;4524;51.364;5.448;2023-01-23T03:15:58;35.73;;;20.13;;
8978;SDS011;4524;51.364;5.448;2023-01-23T03:18:27;28.37;;;19.33;;
8978;SDS011;4524;51.364;5.448;2023-01-23T03:20:59;40.03;;;22.73;;
8978;SDS011;4524;51.364;5.448;2023-01-23T03:23:28;43.07;;;21.57;;
8978;SDS011;4524;51.364;5.448;2023-01-23T03:25:56;35.67;;;20.97;;
8978;SDS011;4524;51.364;5.448;2023-01-23T03:28:29;41.60;;;22.47;;
8978;SDS011;4524;51.364;5.448;2023-01-23T03:31:16;36.73;;;21.30;;
8978;SDS011;4524;51.364;5.448;2023-01-23T03:33:44;38.07;;;21.13;;
8978;SDS011;4524;51.364;5.448;2023-01-23T03:36:12;37.87;;;21.07;;
8978;SDS011;4524;51.364;5.448;2023-01-23T03:38:40;38.17;;;21.27;;
8978;SDS011;4524;51.364;5.448;2023-01-23T03:41:29;35.37;;;20.53;;
8978;SDS011;4524;51.364;5.448;2023-01-23T03:44:02;35.23;;;21.40;;
8978;SDS011;4524;51.364;5.448;2023-01-23T03:46:30;39.37;;;22.27;;
8978;SDS011;4524;51.364;5.448;2023-01-23T03:48:58;35.47;;;20.43;;
8978;SDS011;4524;51.364;5.448;2023-01-23T03:51:26;36.63;;;20.70;;
8978;SDS011;4524;51.364;5.448;2023-01-23T03:53:55;34.53;;;20.53;;
8978;SDS011;4524;51.364;5.448;2023-01-23T03:56:23;37.73;;;20.57;;
8978;SDS011;4524;51.364;5.448;2023-01-23T03:58:51;32.83;;;20.10;;
8978;SDS011;4524;51.364;5.448;2023-01-23T04:01:21;37.13;;;20.00;;
8978;SDS011;4524;51.364;5.448;2023-01-23T04:03:50;35.20;;;20.83;;
8978;SDS011;4524;51.364;5.448;2023-01-23T04:06:18;30.67;;;19.80;;
8978;SDS011;4524;51.364;5.448;2023-01-23T04:08:47;39.77;;;21.20;;
8978;SDS011;4524;51.364;5.448;2023-01-23T04:11:15;41.00;;;22.53;;
8978;SDS011;4524;51.364;5.448;2023-01-23T04:13:44;34.90;;;19.40;;
8978;SDS011;4524;51.364;5.448;2023-01-23T04:16:12;37.40;;;20.50;;
8978;SDS011;4524;51.364;5.448;2023-01-23T04:18:42;30.03;;;19.47;;
8978;SDS011;4524;51.364;5.448;2023-01-23T04:21:10;34.63;;;19.27;;
8978;SDS011;4524;51.364;5.448;2023-01-23T04:23:38;32.83;;;19.43;;
8978;SDS011;4524;51.364;5.448;2023-01-23T04:26:06;35.30;;;20.27;;
8978;SDS011;4524;51.364;5.448;2023-01-23T04:28:34;36.13;;;20.63;;
8978;SDS011;4524;51.364;5.448;2023-01-23T04:31:02;31.13;;;20.00;;
8978;SDS011;4524;51.364;5.448;2023-01-23T04:33:32;33.17;;;20.10;;
8978;SDS011;4524;51.364;5.448;2023-01-23T04:36:04;32.87;;;20.67;;
8978;SDS011;4524;51.364;5.448;2023-01-23T04:38:52;32.37;;;18.37;;
8978;SDS011;4524;51.364;5.448;2023-01-23T04:41:25;35.03;;;20.67;;
8978;SDS011;4524;51.364;5.448;2023-01-23T04:44:10;33.00;;;20.07;;
8978;SDS011;4524;51.364;5.448;2023-01-23T04:47:02;33.77;;;20.23;;
8978;SDS011;4524;51.364;5.448;2023-01-23T04:49:30;38.07;;;21.40;;
8978;SDS011;4524;51.364;5.448;2023-01-23T04:51:59;35.67;;;20.10;;
8978;SDS011;4524;51.364;5.448;2023-01-23T04:54:30;31.67;;;19.07;;
8978;SDS011;4524;51.364;5.448;2023-01-23T04:56:58;39.17;;;21.40;;
8978;SDS011;4524;51.364;5.448;2023-01-23T04:59:28;30.97;;;19.47;;
8978;SDS011;4524;51.364;5.448;2023-01-23T05:01:56;33.30;;;20.90;;
8978;SDS011;4524;51.364;5.448;2023-01-23T05:04:24;38.37;;;20.43;;
8978;SDS011;4524;51.364;5.448;2023-01-23T05:06:52;35.20;;;19.77;;
8978;SDS011;4524;51.364;5.448;2023-01-23T05:09:22;36.23;;;20.97;;
8978;SDS011;4524;51.364;5.448;2023-01-23T05:11:51;33.27;;;20.67;;
8978;SDS011;4524;51.364;5.448;2023-01-23T05:14:21;38.27;;;20.70;;
8978;SDS011;4524;51.364;5.448;2023-01-23T05:16:50;35.57;;;19.77;;
8978;SDS011;4524;51.364;5.448;2023-01-23T05:19:28;29.17;;;18.87;;
8978;SDS011;4524;51.364;5.448;2023-01-23T05:21:59;30.87;;;17.90;;
8978;SDS011;4524;51.364;5.448;2023-01-23T05:24:29;35.60;;;20.60;;
8978;SDS011;4524;51.364;5.448;2023-01-23T05:26:57;30.67;;;19.43;;
8978;SDS011;4524;51.364;5.448;2023-01-23T05:29:28;32.13;;;20.20;;
8978;SDS011;4524;51.364;5.448;2023-01-23T05:32:00;33.03;;;20.13;;
8978;SDS011;4524;51.364;5.448;2023-01-23T05:34:35;34.43;;;20.87;;
8978;SDS011;4524;51.364;5.448;2023-01-23T05:37:11;34.63;;;20.20;;
8978;SDS011;4524;51.364;5.448;2023-01-23T05:39:45;32.37;;;20.10;;
8978;SDS011;4524;51.364;5.448;2023-01-23T05:42:13;34.73;;;20.50;;
8978;SDS011;4524;51.364;5.448;2023-01-23T05:44:57;40.60;;;22.13;;
8978;SDS011;4524;51.364;5.448;2023-01-23T05:47:29;32.87;;;19.97;;
8978;SDS011;4524;51.364;5.448;2023-01-23T05:49:58;32.40;;;20.30;;
8978;SDS011;4524;51.364;5.448;2023-01-23T05:52:30;35.43;;;21.80;;
8978;SDS011;4524;51.364;5.448;2023-01-23T05:55:00;34.17;;;20.73;;
8978;SDS011;4524;51.364;5.448;2023-01-23T05:57:28;33.43;;;19.77;;
8978;SDS011;4524;51.364;5.448;2023-01-23T06:00:15;35.53;;;20.53;;
8978;SDS011;4524;51.364;5.448;2023-01-23T06:03:04;35.23;;;19.33;;
8978;SDS011;4524;51.364;5.448;2023-01-23T06:05:45;33.50;;;20.07;;
8978;SDS011;4524;51.364;5.448;2023-01-23T06:08:17;40.93;;;21.73;;
8978;SDS011;4524;51.364;5.448;2023-01-23T06:10:47;40.83;;;20.90;;
8978;SDS011;4524;51.364;5.448;2023-01-23T06:13:15;32.00;;;19.30;;
8978;SDS011;4524;51.364;5.448;2023-01-23T06:15:43;33.43;;;20.37;;
8978;SDS011;4524;51.364;5.448;2023-01-23T06:18:12;37.60;;;20.80;;
8978;SDS011;4524;51.364;5.448;2023-01-23T06:20:40;34.37;;;20.43;;
8978;SDS011;4524;51.364;5.448;2023-01-23T06:23:08;31.47;;;19.50;;
8978;SDS011;4524;51.364;5.448;2023-01-23T06:25:37;36.57;;;21.13;;
8978;SDS011;4524;51.364;5.448;2023-01-23T06:28:10;37.27;;;20.80;;
8978;SDS011;4524;51.364;5.448;2023-01-23T06:30:38;32.47;;;19.47;;
8978;SDS011;4524;51.364;5.448;2023-01-23T06:33:17;35.70;;;20.27;;
8978;SDS011;4524;51.364;5.448;2023-01-23T06:35:45;35.70;;;21.77;;
8978;SDS011;4524;51.364;5.448;2023-01-23T06:38:14;32.20;;;22.73;;
8978;SDS011;4524;51.364;5.448;2023-01-23T06:40:45;35.47;;;20.33;;
8978;SDS011;4524;51.364;5.448;2023-01-23T06:43:36;38.93;;;21.77;;
8978;SDS011;4524;51.364;5.448;2023-01-23T06:46:10;32.70;;;20.20;;
8978;SDS011;4524;51.364;5.448;2023-01-23T06:48:38;38.70;;;23.37;;
8978;SDS011;4524;51.364;5.448;2023-01-23T06:51:07;34.17;;;24.67;;
8978;SDS011;4524;51.364;5.448;2023-01-23T06:53:37;41.70;;;25.23;;
8978;SDS011;4524;51.364;5.448;2023-01-23T06:56:06;38.77;;;22.77;;
8978;SDS011;4524;51.364;5.448;2023-01-23T06:58:37;31.57;;;19.83;;
8978;SDS011;4524;51.364;5.448;2023-01-23T07:01:16;31.30;;;19.20;;
8978;SDS011;4524;51.364;5.448;2023-01-23T07:04:03;40.23;;;21.53;;
8978;SDS011;4524;51.364;5.448;2023-01-23T07:06:31;34.07;;;21.13;;
8978;SDS011;4524;51.364;5.448;2023-01-23T07:08:59;34.20;;;21.63;;
8978;SDS011;4524;51.364;5.448;2023-01-23T07:11:28;36.23;;;22.13;;
8978;SDS011;4524;51.364;5.448;2023-01-23T07:13:58;35.70;;;21.83;;
8978;SDS011;4524;51.364;5.448;2023-01-23T07:16:27;38.23;;;23.20;;
8978;SDS011;4524;51.364;5.448;2023-01-23T07:18:55;33.90;;;20.07;;
8978;SDS011;4524;51.364;5.448;2023-01-23T07:21:29;32.57;;;19.57;;
8978;SDS011;4524;51.364;5.448;2023-01-23T07:23:57;36.77;;;20.93;;
8978;SDS011;4524;51.364;5.448;2023-01-23T07:26:25;36.73;;;22.57;;
8978;SDS011;4524;51.364;5.448;2023-01-23T07:28:54;31.27;;;20.67;;
8978;SDS011;4524;51.364;5.448;2023-01-23T07:31:23;42.97;;;22.90;;
8978;SDS011;4524;51.364;5.448;2023-01-23T07:33:52;39.80;;;24.93;;
8978;SDS011;4524;51.364;5.448;2023-01-23T07:36:20;31.83;;;20.27;;
8978;SDS011;4524;51.364;5.448;2023-01-23T07:38:48;34.70;;;21.27;;
8978;SDS011;4524;51.364;5.448;2023-01-23T07:41:16;38.47;;;21.63;;
8978;SDS011;4524;51.364;5.448;2023-01-23T07:43:44;39.70;;;21.60;;
8978;SDS011;4524;51.364;5.448;2023-01-23T07:46:12;37.90;;;20.43;;
8978;SDS011;4524;51.364;5.448;2023-01-23T07:48:42;37.20;;;20.53;;
8978;SDS011;4524;51.364;5.448;2023-01-23T07:51:10;37.27;;;22.30;;
8978;SDS011;4524;51.364;5.448;2023-01-23T07:53:38;29.53;;;19.40;;
8978;SDS011;4524;51.364;5.448;2023-01-23T07:56:06;30.90;;;19.80;;
8978;SDS011;4524;51.364;5.448;2023-01-23T07:58:35;33.03;;;19.63;;
8978;SDS011;4524;51.364;5.448;2023-01-23T08:01:06;39.60;;;25.20;;
8978;SDS011;4524;51.364;5.448;2023-01-23T08:03:35;38.47;;;24.93;;
8978;SDS011;4524;51.364;5.448;2023-01-23T08:06:05;40.70;;;25.53;;
8978;SDS011;4524;51.364;5.448;2023-01-23T08:08:34;45.50;;;30.10;;
8978;SDS011;4524;51.364;5.448;2023-01-23T08:11:02;39.07;;;26.43;;
8978;SDS011;4524;51.364;5.448;2023-01-23T08:13:31;37.30;;;25.10;;
8978;SDS011;4524;51.364;5.448;2023-01-23T08:15:59;30.87;;;21.63;;
8978;SDS011;4524;51.364;5.448;2023-01-23T08:18:28;29.80;;;20.53;;
8978;SDS011;4524;51.364;5.448;2023-01-23T08:20:57;33.87;;;19.77;;
8978;SDS011;4524;51.364;5.448;2023-01-23T08:23:29;31.23;;;19.07;;
8978;SDS011;4524;51.364;5.448;2023-01-23T08:25:59;31.70;;;19.93;;
8978;SDS011;4524;51.364;5.448;2023-01-23T08:28:29;32.77;;;21.27;;
8978;SDS011;4524;51.364;5.448;2023-01-23T08:30:58;32.33;;;21.00;;
8978;SDS011;4524;51.364;5.448;2023-01-23T08:33:29;29.03;;;18.37;;
8978;SDS011;4524;51.364;5.448;2023-01-23T08:35:58;28.73;;;18.33;;
8978;SDS011;4524;51.364;5.448;2023-01-23T08:38:29;28.47;;;18.37;;
8978;SDS011;4524;51.364;5.448;2023-01-23T08:40:58;33.50;;;20.47;;
8978;SDS011;4524;51.364;5.448;2023-01-23T08:43:27;24.93;;;18.23;;
8978;SDS011;4524;51.364;5.448;2023-01-23T08:45:56;34.90;;;22.13;;
8978;SDS011;4524;51.364;5.448;2023-01-23T08:48:25;30.17;;;20.20;;
8978;SDS011;4524;51.364;5.448;2023-01-23T08:50:57;29.10;;;19.63;;
8978;SDS011;4524;51.364;5.448;2023-01-23T08:53:29;28.13;;;19.40;;
8978;SDS011;4524;51.364;5.448;2023-01-23T08:55:58;28.27;;;19.17;;
8978;SDS011;4524;51.364;5.448;2023-01-23T08:58:26;30.50;;;18.73;;
8978;SDS011;4524;51.364;5.448;2023-01-23T09:00:54;29.80;;;18.37;;
8978;SDS011;4524;51.364;5.448;2023-01-23T09:03:22;27.77;;;18.87;;
8978;SDS011;4524;51.364;5.448;2023-01-23T09:05:51;28.27;;;19.97;;
8978;SDS011;4524;51.364;5.448;2023-01-23T09:08:19;30.43;;;19.50;;
8978;SDS011;4524;51.364;5.448;2023-01-23T09:10:48;29.27;;;18.80;;
8978;SDS011;4524;51.364;5.448;2023-01-23T09:13:17;25.03;;;17.57;;
8978;SDS011;4524;51.364;5.448;2023-01-23T09:15:45;24.93;;;17.63;;
8978;SDS011;4524;51.364;5.448;2023-01-23T09:18:13;27.43;;;17.97;;
8978;SDS011;4524;51.364;5.448;2023-01-23T09:20:41;24.60;;;17.47;;
8978;SDS011;4524;51.364;5.448;2023-01-23T09:23:09;25.00;;;17.73;;
8978;SDS011;4524;51.364;5.448;2023-01-23T09:25:37;25.27;;;17.87;;
8978;SDS011;4524;51.364;5.448;2023-01-23T09:28:07;27.93;;;17.63;;
8978;SDS011;4524;51.364;5.448;2023-01-23T09:30:35;25.87;;;17.50;;
8978;SDS011;4524;51.364;5.448;2023-01-23T09:33:03;24.93;;;17.30;;
8978;SDS011;4524;51.364;5.448;2023-01-23T09:35:31;26.30;;;18.13;;
8978;SDS011;4524;51.364;5.448;2023-01-23T09:37:59;24.17;;;16.77;;
8978;SDS011;4524;51.364;5.448;2023-01-23T09:40:28;25.37;;;17.40;;
8978;SDS011;4524;51.364;5.448;2023-01-23T09:42:59;25.00;;;17.77;;
8978;SDS011;4524;51.364;5.448;2023-01-23T09:45:33;25.33;;;16.87;;
8978;SDS011;4524;51.364;5.448;2023-01-23T09:48:06;23.67;;;17.03;;
8978;SDS011;4524;51.364;5.448;2023-01-23T09:50:43;26.90;;;17.80;;
8978;SDS011;4524;51.364;5.448;2023-01-23T09:53:21;26.00;;;17.60;;
8978;SDS011;4524;51.364;5.448;2023-01-23T09:55:55;25.50;;;17.23;;
8978;SDS011;4524;51.364;5.448;2023-01-23T09:58:27;27.43;;;17.90;;
8978;SDS011;4524;51.364;5.448;2023-01-23T10:01:03;25.50;;;17.20;;
8978;SDS011;4524;51.364;5.448;2023-01-23T10:03:31;23.60;;;17.10;;
8978;SDS011;4524;51.364;5.448;2023-01-23T10:06:03;24.00;;;16.93;;
8978;SDS011;4524;51.364;5.448;2023-01-23T10:08:41;24.73;;;17.80;;
8978;SDS011;4524;51.364;5.448;2023-01-23T10:11:16;27.83;;;17.93;;
8978;SDS011;4524;51.364;5.448;2023-01-23T10:14:04;27.20;;;18.10;;
8978;SDS011;4524;51.364;5.448;2023-01-23T10:16:51;28.00;;;18.60;;
8978;SDS011;4524;51.364;5.448;2023-01-23T10:19:34;25.10;;;17.23;;
8978;SDS011;4524;51.364;5.448;2023-01-23T10:22:16;22.73;;;16.93;;
8978;SDS011;4524;51.364;5.448;2023-01-23T10:25:00;26.20;;;17.57;;
8978;SDS011;4524;51.364;5.448;2023-01-23T10:27:37;24.77;;;17.70;;
8978;SDS011;4524;51.364;5.448;2023-01-23T10:30:19;27.63;;;18.83;;
8978;SDS011;4524;51.364;5.448;2023-01-23T10:32:54;23.63;;;17.33;;
8978;SDS011;4524;51.364;5.448;2023-01-23T10:35:25;22.27;;;16.03;;
8978;SDS011;4524;51.364;5.448;2023-01-23T10:38:00;28.07;;;18.87;;
8978;SDS011;4524;51.364;5.448;2023-01-23T10:40:31;26.10;;;16.93;;
8978;SDS011;4524;51.364;5.448;2023-01-23T10:43:17;25.03;;;17.67;;
8978;SDS011;4524;51.364;5.448;2023-01-23T10:45:46;23.57;;;17.37;;
8978;SDS011;4524;51.364;5.448;2023-01-23T10:48:38;25.70;;;17.87;;
8978;SDS011;4524;51.364;5.448;2023-01-23T10:51:24;25.23;;;18.30;;
8978;SDS011;4524;51.364;5.448;2023-01-23T10:54:09;23.87;;;16.90;;
8978;SDS011;4524;51.364;5.448;2023-01-23T10:56:57;26.07;;;18.10;;
8978;SDS011;4524;51.364;5.448;2023-01-23T10:59:30;25.17;;;17.87;;
8978;SDS011;4524;51.364;5.448;2023-01-23T11:02:08;26.40;;;17.83;;
8978;SDS011;4524;51.364;5.448;2023-01-23T11:04:47;25.13;;;17.93;;
8978;SDS011;4524;51.364;5.448;2023-01-23T11:07:18;25.33;;;17.97;;
8978;SDS011;4524;51.364;5.448;2023-01-23T11:09:49;25.07;;;18.50;;
8978;SDS011;4524;51.364;5.448;2023-01-23T11:12:20;25.97;;;18.40;;
8978;SDS011;4524;51.364;5.448;2023-01-23T11:14:50;26.87;;;18.87;;
8978;SDS011;4524;51.364;5.448;2023-01-23T11:17:20;26.50;;;18.80;;
8978;SDS011;4524;51.364;5.448;2023-01-23T11:19:52;25.67;;;17.77;;
8978;SDS011;4524;51.364;5.448;2023-01-23T11:22:27;24.57;;;17.50;;
8978;SDS011;4524;51.364;5.448;2023-01-23T11:24:57;24.63;;;18.43;;
8978;SDS011;4524;51.364;5.448;2023-01-23T11:27:27;24.93;;;18.03;;
8978;SDS011;4524;51.364;5.448;2023-01-23T11:30:19;25.73;;;18.63;;
8978;SDS011;4524;51.364;5.448;2023-01-23T11:32:57;23.20;;;17.93;;
8978;SDS011;4524;51.364;5.448;2023-01-23T11:35:33;22.57;;;17.27;;
8978;SDS011;4524;51.364;5.448;2023-01-23T11:38:14;24.20;;;18.03;;
8978;SDS011;4524;51.364;5.448;2023-01-23T11:40:57;23.93;;;17.93;;
8978;SDS011;4524;51.364;5.448;2023-01-23T11:43:25;26.27;;;18.87;;
8978;SDS011;4524;51.364;5.448;2023-01-23T11:45:58;27.17;;;19.07;;
8978;SDS011;4524;51.364;5.448;2023-01-23T11:48:48;26.17;;;19.30;;
8978;SDS011;4524;51.364;5.448;2023-01-23T11:51:29;26.80;;;18.80;;
8978;SDS011;4524;51.364;5.448;2023-01-23T11:54:05;23.83;;;17.93;;
8978;SDS011;4524;51.364;5.448;2023-01-23T11:56:59;28.23;;;20.00;;
8978;SDS011;4524;51.364;5.448;2023-01-23T11:59:41;25.67;;;18.40;;
8978;SDS011;4524;51.364;5.448;2023-01-23T12:02:30;24.50;;;18.37;;
8978;SDS011;4524;51.364;5.448;2023-01-23T12:08:38;26.40;;;18.60;;
8978;SDS011;4524;51.364;5.448;2023-01-23T12:11:12;28.70;;;19.90;;
8978;SDS011;4524;51.364;5.448;2023-01-23T12:13:45;25.10;;;18.73;;
8978;SDS011;4524;51.364;5.448;2023-01-23T12:16:35;27.50;;;19.47;;
8978;SDS011;4524;51.364;5.448;2023-01-23T12:19:23;25.07;;;18.20;;
8978;SDS011;4524;51.364;5.448;2023-01-23T12:22:01;26.30;;;19.77;;
8978;SDS011;4524;51.364;5.448;2023-01-23T12:24:42;24.80;;;18.03;;
8978;SDS011;4524;51.364;5.448;2023-01-23T12:27:21;26.73;;;20.10;;
8978;SDS011;4524;51.364;5.448;2023-01-23T12:30:04;24.93;;;18.40;;
8978;SDS011;4524;51.364;5.448;2023-01-23T12:32:43;24.63;;;18.63;;
8978;SDS011;4524;51.364;5.448;2023-01-23T12:35:29;25.77;;;18.43;;
8978;SDS011;4524;51.364;5.448;2023-01-23T12:38:05;28.00;;;19.20;;
8978;SDS011;4524;51.364;5.448;2023-01-23T12:40:43;27.17;;;19.23;;
8978;SDS011;4524;51.364;5.448;2023-01-23T12:43:15;25.43;;;18.43;;
8978;SDS011;4524;51.364;5.448;2023-01-23T12:45:49;25.00;;;18.53;;
8978;SDS011;4524;51.364;5.448;2023-01-23T12:48:24;24.83;;;18.27;;
8978;SDS011;4524;51.364;5.448;2023-01-23T12:50:59;26.37;;;18.80;;
8978;SDS011;4524;51.364;5.448;2023-01-23T12:53:31;24.43;;;18.27;;
8978;SDS011;4524;51.364;5.448;2023-01-23T12:56:05;23.50;;;18.00;;
8978;SDS011;4524;51.364;5.448;2023-01-23T12:58:39;24.03;;;17.57;;
8978;SDS011;4524;51.364;5.448;2023-01-23T13:01:15;23.50;;;16.93;;
8978;SDS011;4524;51.364;5.448;2023-01-23T13:03:55;25.53;;;17.47;;
8978;SDS011;4524;51.364;5.448;2023-01-23T13:09:44;25.03;;;18.30;;
8978;SDS011;4524;51.364;5.448;2023-01-23T13:12:25;25.37;;;18.50;;
8978;SDS011;4524;51.364;5.448;2023-01-23T13:18:05;25.40;;;18.27;;
8978;SDS011;4524;51.364;5.448;2023-01-23T13:20:53;24.00;;;17.70;;
8978;SDS011;4524;51.364;5.448;2023-01-23T13:23:41;23.57;;;17.80;;
8978;SDS011;4524;51.364;5.448;2023-01-23T13:26:23;21.30;;;15.80;;
8978;SDS011;4524;51.364;5.448;2023-01-23T13:28:56;22.00;;;17.20;;
8978;SDS011;4524;51.364;5.448;2023-01-23T13:31:41;20.87;;;15.43;;
8978;SDS011;4524;51.364;5.448;2023-01-23T13:37:30;20.77;;;15.80;;
8978;SDS011;4524;51.364;5.448;2023-01-23T13:40:18;18.10;;;13.60;;
8978;SDS011;4524;51.364;5.448;2023-01-23T13:42:48;17.60;;;14.23;;
8978;SDS011;4524;51.364;5.448;2023-01-23T13:45:21;17.67;;;13.60;;
8978;SDS011;4524;51.364;5.448;2023-01-23T13:48:38;17.07;;;13.13;;
8978;SDS011;4524;51.364;5.448;2023-01-23T13:51:47;18.17;;;13.43;;
8978;SDS011;4524;51.364;5.448;2023-01-23T13:54:30;15.63;;;12.87;;
8978;SDS011;4524;51.364;5.448;2023-01-23T13:57:30;15.13;;;11.63;;
8978;SDS011;4524;51.364;5.448;2023-01-23T14:00:15;13.50;;;11.47;;
8978;SDS011;4524;51.364;5.448;2023-01-23T14:03:08;15.37;;;11.80;;
8978;SDS011;4524;51.364;5.448;2023-01-23T14:06:14;14.00;;;10.80;;
8978;SDS011;4524;51.364;5.448;2023-01-23T14:08:56;16.37;;;12.47;;
8978;SDS011;4524;51.364;5.448;2023-01-23T14:11:38;14.47;;;11.07;;
8978;SDS011;4524;51.364;5.448;2023-01-23T14:14:20;16.77;;;11.87;;
8978;SDS011;4524;51.364;5.448;2023-01-23T14:17:20;15.33;;;10.83;;
8978;SDS011;4524;51.364;5.448;2023-01-23T14:20:05;15.33;;;11.40;;
8978;SDS011;4524;51.364;5.448;2023-01-23T14:22:44;13.80;;;11.30;;
8978;SDS011;4524;51.364;5.448;2023-01-23T14:25:13;15.87;;;12.40;;
8978;SDS011;4524;51.364;5.448;2023-01-23T14:27:43;14.63;;;11.97;;
8978;SDS011;4524;51.364;5.448;2023-01-23T14:30:21;15.60;;;12.40;;
8978;SDS011;4524;51.364;5.448;2023-01-23T14:32:52;15.20;;;12.03;;
8978;SDS011;4524;51.364;5.448;2023-01-23T14:35:23;16.57;;;12.83;;
8978;SDS011;4524;51.364;5.448;2023-01-23T14:37:53;14.03;;;11.90;;
8978;SDS011;4524;51.364;5.448;2023-01-23T14:40:24;14.00;;;11.93;;
8978;SDS011;4524;51.364;5.448;2023-01-23T14:43:04;16.50;;;12.80;;
8978;SDS011;4524;51.364;5.448;2023-01-23T14:45:34;17.87;;;13.30;;
8978;SDS011;4524;51.364;5.448;2023-01-23T14:48:03;15.93;;;13.23;;
8978;SDS011;4524;51.364;5.448;2023-01-23T14:50:34;14.37;;;12.07;;
8978;SDS011;4524;51.364;5.448;2023-01-23T14:53:04;18.87;;;14.47;;
8978;SDS011;4524;51.364;5.448;2023-01-23T14:55:33;17.57;;;13.80;;
8978;SDS011;4524;51.364;5.448;2023-01-23T14:58:05;16.50;;;13.23;;
8978;SDS011;4524;51.364;5.448;2023-01-23T15:00:39;18.23;;;14.27;;
8978;SDS011;4524;51.364;5.448;2023-01-23T15:03:10;19.10;;;14.67;;
8978;SDS011;4524;51.364;5.448;2023-01-23T15:05:40;19.23;;;14.97;;
8978;SDS011;4524;51.364;5.448;2023-01-23T15:08:25;21.00;;;15.13;;
8978;SDS011;4524;51.364;5.448;2023-01-23T15:10:58;19.53;;;15.10;;
8978;SDS011;4524;51.364;5.448;2023-01-23T15:13:27;20.80;;;15.27;;
8978;SDS011;4524;51.364;5.448;2023-01-23T15:16:02;19.00;;;14.73;;
8978;SDS011;4524;51.364;5.448;2023-01-23T15:18:33;19.67;;;14.63;;
8978;SDS011;4524;51.364;5.448;2023-01-23T15:21:04;18.47;;;14.70;;
8978;SDS011;4524;51.364;5.448;2023-01-23T15:23:34;20.40;;;14.80;;
8978;SDS011;4524;51.364;5.448;2023-01-23T15:26:22;17.53;;;13.93;;
8978;SDS011;4524;51.364;5.448;2023-01-23T15:28:57;19.20;;;13.73;;
8978;SDS011;4524;51.364;5.448;2023-01-23T15:31:28;17.70;;;13.57;;
8978;SDS011;4524;51.364;5.448;2023-01-23T15:34:10;17.27;;;13.23;;
8978;SDS011;4524;51.364;5.448;2023-01-23T15:36:50;18.50;;;13.83;;